Leggett, California
Current Conditions -  °F | °C
As of 7:56 AM on Friday 31 Oct 2014 (Local Time) from KUKI Reporting Station
Light Rain Light Rain  
Wind Chill: 55°   Ceiling: 4200
Heat Index: 55°   Visibility: 10mi
Dew Point: 52°   Wind: 3mph
Humidity: 89%   Direction: 280°W
Pressure: 29.86"   Gusts: NA
Location:  39.87°N, 123.72°W
Report Text: KUKI 311456Z AUTO 28003KT 10SM -RA FEW022 BKN042 OVC055 13/11 A2986 RMK AO2 SLP107 P0003 60036 T01280111 53013
Loading
Personal Weather Stations






























Interactive Weather Map
Tropical Storm Tracking
New forecast layout! Learn more

10-Day Weather Forecast

Advertisements
Track Severe Weather on mobile